Terminal Aerodrome Forecast
Issued by NWS

Home | Current Version | Previous Version | Text Only | Print | Product List | Glossary Off
Versions: 1 2 3 4 5 6 7 8 9 10 11 12 13 14 15 16

000
FTUS43 KMPX 241120
TAFAXN
TAF
KAXN 241120Z 2412/2512 10012KT P6SM VCSH OVC050
     FM241330 12014G21KT 6SM -SHRA BR OVC040
     FM241800 12016G22KT 6SM -RA OVC020
     FM250000 11013KT 4SM BR OVC012
     FM250500 09010KT 2SM BR OVC005=

USA.gov is the U.S. government's official web portal to all federal, state and local government web resources and services.